DECVV EDDH-EDXW
Flight info
| Callsign | DECVV |
|---|---|
| Flight time | 0h 54m |
| Altitude | 4000 |
| Route | SOKWO1G/33 SOKWO T814 EXNEL DCT OLDIP |
| Aircraft | DA40/L-SBDGRY/S |
Departure
| Time | 2026-05-05 13:36 |
|---|---|
| Airport | Hamburg Helmut Schmidt Airport (EDDH) |
Arrival
| Time | 2026-05-05 14:31 |
|---|---|
| Airport | Westerland Sylt Airport (EDXW) |
| Time | Latitude | Longitude | Altitude | Speed | Heading |
|---|---|---|---|---|---|
| 2026-05-05 13:09 | 53.62679 | 9.98951 | 38 ft | 0 kts | 61° |
| 2026-05-05 13:28 | 53.62679 | 9.98952 | 38 ft | 1 kts | 61° |
| 2026-05-05 13:29 | 53.62713 | 9.99016 | 38 ft | 13 kts | 25° |
| 2026-05-05 13:29 | 53.62808 | 9.98952 | 38 ft | 6 kts | 329° |
| 2026-05-05 13:29 | 53.62856 | 9.98925 | 38 ft | 10 kts | 4° |
| 2026-05-05 13:29 | 53.62918 | 9.99014 | 38 ft | 13 kts | 51° |
| 2026-05-05 13:30 | 53.62982 | 9.99141 | 39 ft | 14 kts | 50° |
| 2026-05-05 13:30 | 53.63028 | 9.99233 | 39 ft | 12 kts | 47° |
| 2026-05-05 13:30 | 53.63098 | 9.99299 | 39 ft | 12 kts | 14° |
| 2026-05-05 13:30 | 53.63143 | 9.99317 | 40 ft | 0 kts | 13° |
| 2026-05-05 13:33 | 53.63146 | 9.99319 | 40 ft | 5 kts | 14° |
| 2026-05-05 13:34 | 53.63240 | 9.99356 | 41 ft | 20 kts | 7° |
| 2026-05-05 13:34 | 53.63392 | 9.99292 | 40 ft | 25 kts | 331° |
| 2026-05-05 13:34 | 53.63460 | 9.99233 | 41 ft | 0 kts | 334° |
| 2026-05-05 13:35 | 53.63489 | 9.99209 | 41 ft | 25 kts | 335° |
| 2026-05-05 13:35 | 53.63850 | 9.98886 | 83 ft | 79 kts | 338° |
| 2026-05-05 13:35 | 53.64360 | 9.98466 | 349 ft | 83 kts | 341° |
| 2026-05-05 13:36 | 53.64897 | 9.98025 | 571 ft | 90 kts | 336° |
| 2026-05-05 13:36 | 53.65442 | 9.97535 | 867 ft | 88 kts | 340° |
| 2026-05-05 13:36 | 53.65978 | 9.97075 | 1171 ft | 87 kts | 339° |
| 2026-05-05 13:36 | 53.66517 | 9.96612 | 1457 ft | 89 kts | 339° |
| 2026-05-05 13:37 | 53.67075 | 9.96137 | 1720 ft | 90 kts | 338° |
| 2026-05-05 13:37 | 53.67628 | 9.95662 | 2010 ft | 89 kts | 338° |
| 2026-05-05 13:37 | 53.68184 | 9.95185 | 2296 ft | 90 kts | 338° |
| 2026-05-05 13:37 | 53.68749 | 9.94725 | 2585 ft | 90 kts | 346° |
| 2026-05-05 13:38 | 53.69353 | 9.94699 | 2865 ft | 86 kts | 5° |
| 2026-05-05 13:38 | 53.69952 | 9.94686 | 3165 ft | 87 kts | 3° |
| 2026-05-05 13:38 | 53.70556 | 9.94688 | 3458 ft | 85 kts | 2° |
| 2026-05-05 13:38 | 53.71151 | 9.94685 | 3758 ft | 87 kts | 0° |
| 2026-05-05 13:39 | 53.71774 | 9.94688 | 3967 ft | 100 kts | 359° |
| 2026-05-05 13:39 | 53.72486 | 9.94313 | 3978 ft | 115 kts | 320° |
| 2026-05-05 13:39 | 53.73089 | 9.93398 | 3978 ft | 120 kts | 321° |
| 2026-05-05 13:39 | 53.73746 | 9.92495 | 3979 ft | 123 kts | 321° |
| 2026-05-05 13:40 | 53.74417 | 9.91577 | 3980 ft | 125 kts | 321° |
| 2026-05-05 13:40 | 53.75100 | 9.90650 | 3979 ft | 126 kts | 322° |
| 2026-05-05 13:40 | 53.75780 | 9.89728 | 3977 ft | 125 kts | 322° |
| 2026-05-05 13:40 | 53.76461 | 9.88804 | 3980 ft | 125 kts | 322° |
| 2026-05-05 13:41 | 53.77142 | 9.87885 | 3980 ft | 125 kts | 322° |
| 2026-05-05 13:41 | 53.77815 | 9.86971 | 3979 ft | 124 kts | 322° |
| 2026-05-05 13:41 | 53.78492 | 9.86059 | 3979 ft | 125 kts | 322° |
| 2026-05-05 13:41 | 53.79172 | 9.85140 | 3980 ft | 126 kts | 322° |
| 2026-05-05 13:42 | 53.79855 | 9.84220 | 3978 ft | 125 kts | 322° |
| 2026-05-05 13:42 | 53.80535 | 9.83299 | 3978 ft | 125 kts | 322° |
| 2026-05-05 13:42 | 53.81218 | 9.82376 | 3977 ft | 126 kts | 322° |
| 2026-05-05 13:42 | 53.81900 | 9.81448 | 3977 ft | 125 kts | 322° |
| 2026-05-05 13:43 | 53.82571 | 9.80536 | 3979 ft | 125 kts | 322° |
| 2026-05-05 13:43 | 53.83258 | 9.79605 | 3979 ft | 124 kts | 322° |
| 2026-05-05 13:43 | 53.83935 | 9.78686 | 3979 ft | 125 kts | 322° |
| 2026-05-05 13:43 | 53.84614 | 9.77766 | 3980 ft | 125 kts | 322° |
| 2026-05-05 13:44 | 53.85280 | 9.76861 | 3977 ft | 124 kts | 323° |
| 2026-05-05 13:44 | 53.85954 | 9.75945 | 3977 ft | 124 kts | 324° |
| 2026-05-05 13:44 | 53.86624 | 9.75034 | 3979 ft | 124 kts | 323° |
| 2026-05-05 13:44 | 53.87299 | 9.74117 | 3978 ft | 125 kts | 323° |
| 2026-05-05 13:45 | 53.87973 | 9.73200 | 3982 ft | 124 kts | 323° |
| 2026-05-05 13:45 | 53.88649 | 9.72281 | 3983 ft | 125 kts | 323° |
| 2026-05-05 13:45 | 53.89326 | 9.71360 | 3983 ft | 125 kts | 322° |
| 2026-05-05 13:45 | 53.90004 | 9.70434 | 3983 ft | 125 kts | 324° |
| 2026-05-05 13:46 | 53.90679 | 9.69512 | 3985 ft | 124 kts | 324° |
| 2026-05-05 13:46 | 53.91353 | 9.68593 | 3984 ft | 125 kts | 323° |
| 2026-05-05 13:46 | 53.92031 | 9.67671 | 3983 ft | 125 kts | 324° |
| 2026-05-05 13:46 | 53.92704 | 9.66751 | 3986 ft | 124 kts | 324° |
| 2026-05-05 13:47 | 53.93376 | 9.65832 | 3989 ft | 125 kts | 323° |
| 2026-05-05 13:47 | 53.94050 | 9.64901 | 3990 ft | 125 kts | 324° |
| 2026-05-05 13:47 | 53.94735 | 9.63977 | 3992 ft | 127 kts | 323° |
| 2026-05-05 13:47 | 53.95429 | 9.63034 | 3990 ft | 128 kts | 324° |
| 2026-05-05 13:48 | 53.96124 | 9.62085 | 3987 ft | 128 kts | 323° |
| 2026-05-05 13:48 | 53.96814 | 9.61136 | 3987 ft | 128 kts | 323° |
| 2026-05-05 13:48 | 53.97504 | 9.60190 | 3986 ft | 127 kts | 322° |
| 2026-05-05 13:48 | 53.98192 | 9.59246 | 3986 ft | 127 kts | 324° |
| 2026-05-05 13:49 | 53.98877 | 9.58308 | 3988 ft | 126 kts | 323° |
| 2026-05-05 13:49 | 53.99560 | 9.57371 | 3989 ft | 126 kts | 323° |
| 2026-05-05 13:49 | 54.00246 | 9.56430 | 3993 ft | 127 kts | 324° |
| 2026-05-05 13:49 | 54.00940 | 9.55480 | 3989 ft | 128 kts | 324° |
| 2026-05-05 13:50 | 54.01627 | 9.54537 | 3986 ft | 126 kts | 323° |
| 2026-05-05 13:50 | 54.02304 | 9.53606 | 3985 ft | 126 kts | 323° |
| 2026-05-05 13:50 | 54.02989 | 9.52667 | 3985 ft | 126 kts | 324° |
| 2026-05-05 13:50 | 54.03671 | 9.51730 | 3983 ft | 126 kts | 324° |
| 2026-05-05 13:51 | 54.04356 | 9.50787 | 3981 ft | 127 kts | 323° |
| 2026-05-05 13:51 | 54.05044 | 9.49836 | 3982 ft | 128 kts | 323° |
| 2026-05-05 13:51 | 54.05730 | 9.48876 | 3982 ft | 128 kts | 322° |
| 2026-05-05 13:51 | 54.06411 | 9.47915 | 3982 ft | 127 kts | 323° |
| 2026-05-05 13:52 | 54.07087 | 9.46944 | 3981 ft | 127 kts | 324° |
| 2026-05-05 13:52 | 54.07787 | 9.46026 | 3987 ft | 127 kts | 326° |
| 2026-05-05 13:52 | 54.08481 | 9.45099 | 3985 ft | 126 kts | 324° |
| 2026-05-05 13:52 | 54.09165 | 9.44156 | 3986 ft | 126 kts | 324° |
| 2026-05-05 13:53 | 54.09849 | 9.43214 | 3984 ft | 127 kts | 323° |
| 2026-05-05 13:53 | 54.10535 | 9.42268 | 3986 ft | 127 kts | 324° |
| 2026-05-05 13:53 | 54.11220 | 9.41322 | 3984 ft | 127 kts | 323° |
| 2026-05-05 13:53 | 54.11908 | 9.40376 | 3987 ft | 127 kts | 323° |
| 2026-05-05 13:54 | 54.12598 | 9.39425 | 3986 ft | 128 kts | 323° |
| 2026-05-05 13:54 | 54.13293 | 9.38465 | 3983 ft | 129 kts | 323° |
| 2026-05-05 13:54 | 54.13988 | 9.37506 | 3983 ft | 129 kts | 324° |
| 2026-05-05 13:54 | 54.14681 | 9.36544 | 3983 ft | 128 kts | 324° |
| 2026-05-05 13:55 | 54.15372 | 9.35586 | 3981 ft | 128 kts | 323° |
| 2026-05-05 13:55 | 54.16061 | 9.34629 | 3980 ft | 127 kts | 324° |
| 2026-05-05 13:55 | 54.16748 | 9.33676 | 3980 ft | 127 kts | 324° |
| 2026-05-05 13:55 | 54.17434 | 9.32723 | 3980 ft | 128 kts | 324° |
| 2026-05-05 13:56 | 54.18122 | 9.31771 | 3980 ft | 127 kts | 323° |
| 2026-05-05 13:56 | 54.18807 | 9.30816 | 3983 ft | 127 kts | 324° |
| 2026-05-05 13:56 | 54.19495 | 9.29866 | 3985 ft | 127 kts | 323° |
| 2026-05-05 13:56 | 54.20180 | 9.28916 | 3983 ft | 127 kts | 323° |
| 2026-05-05 13:57 | 54.20855 | 9.27980 | 3980 ft | 127 kts | 323° |
| 2026-05-05 13:57 | 54.21542 | 9.27026 | 3980 ft | 127 kts | 324° |
| 2026-05-05 13:57 | 54.22227 | 9.26072 | 3979 ft | 126 kts | 324° |
| 2026-05-05 13:57 | 54.22907 | 9.25123 | 3978 ft | 127 kts | 323° |
| 2026-05-05 13:58 | 54.23590 | 9.24170 | 3985 ft | 126 kts | 324° |
| 2026-05-05 13:58 | 54.24272 | 9.23220 | 3983 ft | 126 kts | 325° |
| 2026-05-05 13:58 | 54.24952 | 9.22273 | 3986 ft | 127 kts | 325° |
| 2026-05-05 13:58 | 54.25642 | 9.21314 | 3987 ft | 128 kts | 324° |
| 2026-05-05 13:59 | 54.27018 | 9.19398 | 3980 ft | 126 kts | 324° |
| 2026-05-05 13:59 | 54.27696 | 9.18446 | 3982 ft | 126 kts | 323° |
| 2026-05-05 14:00 | 54.29061 | 9.16538 | 3981 ft | 127 kts | 324° |
| 2026-05-05 14:00 | 54.29514 | 9.15907 | 3980 ft | 127 kts | 325° |
| 2026-05-05 14:00 | 54.30425 | 9.14636 | 3985 ft | 127 kts | 323° |
| 2026-05-05 14:00 | 54.31120 | 9.13661 | 3986 ft | 128 kts | 325° |
| 2026-05-05 14:01 | 54.31800 | 9.12713 | 3985 ft | 127 kts | 323° |
| 2026-05-05 14:01 | 54.32487 | 9.11752 | 3986 ft | 127 kts | 325° |
| 2026-05-05 14:01 | 54.33180 | 9.10782 | 3986 ft | 127 kts | 324° |
| 2026-05-05 14:01 | 54.33855 | 9.09835 | 3984 ft | 127 kts | 323° |
| 2026-05-05 14:02 | 54.34537 | 9.08871 | 3987 ft | 127 kts | 326° |
| 2026-05-05 14:02 | 54.35232 | 9.07903 | 3983 ft | 129 kts | 326° |
| 2026-05-05 14:02 | 54.35932 | 9.06924 | 3985 ft | 130 kts | 324° |
| 2026-05-05 14:02 | 54.36636 | 9.05936 | 3984 ft | 131 kts | 324° |
| 2026-05-05 14:03 | 54.37337 | 9.04948 | 3985 ft | 130 kts | 324° |
| 2026-05-05 14:03 | 54.38036 | 9.03962 | 3985 ft | 130 kts | 324° |
| 2026-05-05 14:03 | 54.38736 | 9.02980 | 3988 ft | 130 kts | 324° |
| 2026-05-05 14:03 | 54.39437 | 9.01995 | 3988 ft | 130 kts | 326° |
| 2026-05-05 14:04 | 54.40136 | 9.01011 | 3988 ft | 130 kts | 325° |
| 2026-05-05 14:04 | 54.40835 | 9.00024 | 3988 ft | 130 kts | 324° |
| 2026-05-05 14:04 | 54.41535 | 8.99044 | 3988 ft | 130 kts | 324° |
| 2026-05-05 14:04 | 54.42231 | 8.98063 | 3987 ft | 129 kts | 325° |
| 2026-05-05 14:05 | 54.42921 | 8.97088 | 3988 ft | 128 kts | 324° |
| 2026-05-05 14:05 | 54.43611 | 8.96118 | 3988 ft | 128 kts | 325° |
| 2026-05-05 14:05 | 54.44302 | 8.95146 | 3985 ft | 129 kts | 324° |
| 2026-05-05 14:05 | 54.44984 | 8.94181 | 3986 ft | 128 kts | 324° |
| 2026-05-05 14:06 | 54.45679 | 8.93196 | 3986 ft | 128 kts | 325° |
| 2026-05-05 14:06 | 54.46357 | 8.92240 | 3986 ft | 127 kts | 325° |
| 2026-05-05 14:06 | 54.47040 | 8.91274 | 3985 ft | 127 kts | 324° |
| 2026-05-05 14:06 | 54.47724 | 8.90306 | 3988 ft | 128 kts | 326° |
| 2026-05-05 14:07 | 54.48412 | 8.89336 | 3988 ft | 128 kts | 326° |
| 2026-05-05 14:07 | 54.49097 | 8.88369 | 3989 ft | 128 kts | 324° |
| 2026-05-05 14:07 | 54.49780 | 8.87400 | 3988 ft | 127 kts | 324° |
| 2026-05-05 14:07 | 54.50466 | 8.86431 | 3990 ft | 128 kts | 325° |
| 2026-05-05 14:08 | 54.51154 | 8.85454 | 3988 ft | 129 kts | 324° |
| 2026-05-05 14:08 | 54.51846 | 8.84473 | 3984 ft | 129 kts | 324° |
| 2026-05-05 14:08 | 54.52534 | 8.83494 | 3984 ft | 128 kts | 325° |
| 2026-05-05 14:08 | 54.53222 | 8.82518 | 3989 ft | 128 kts | 324° |
| 2026-05-05 14:09 | 54.53909 | 8.81545 | 3994 ft | 127 kts | 326° |
| 2026-05-05 14:09 | 54.54593 | 8.80576 | 3994 ft | 127 kts | 324° |
| 2026-05-05 14:09 | 54.55273 | 8.79606 | 3994 ft | 127 kts | 324° |
| 2026-05-05 14:09 | 54.55956 | 8.78635 | 3994 ft | 127 kts | 325° |
| 2026-05-05 14:10 | 54.56406 | 8.77994 | 3994 ft | 127 kts | 326° |
| 2026-05-05 14:10 | 54.57085 | 8.77029 | 3993 ft | 126 kts | 324° |
| 2026-05-05 14:10 | 54.57765 | 8.76061 | 3993 ft | 127 kts | 324° |
| 2026-05-05 14:10 | 54.58447 | 8.75091 | 3993 ft | 127 kts | 325° |
| 2026-05-05 14:11 | 54.59129 | 8.74119 | 3990 ft | 127 kts | 324° |
| 2026-05-05 14:11 | 54.59813 | 8.73144 | 3990 ft | 128 kts | 323° |
| 2026-05-05 14:11 | 54.60500 | 8.72165 | 3945 ft | 126 kts | 324° |
| 2026-05-05 14:11 | 54.61166 | 8.71217 | 3812 ft | 122 kts | 324° |
| 2026-05-05 14:12 | 54.61819 | 8.70297 | 3681 ft | 120 kts | 329° |
| 2026-05-05 14:12 | 54.62505 | 8.69498 | 3548 ft | 119 kts | 329° |
| 2026-05-05 14:12 | 54.63179 | 8.68690 | 3420 ft | 118 kts | 330° |
| 2026-05-05 14:12 | 54.63848 | 8.67868 | 3292 ft | 118 kts | 329° |
| 2026-05-05 14:13 | 54.64521 | 8.67047 | 3160 ft | 118 kts | 330° |
| 2026-05-05 14:13 | 54.65218 | 8.66195 | 3038 ft | 126 kts | 328° |
| 2026-05-05 14:13 | 54.65931 | 8.65316 | 3006 ft | 125 kts | 329° |
| 2026-05-05 14:13 | 54.66641 | 8.64452 | 3014 ft | 125 kts | 330° |
| 2026-05-05 14:14 | 54.67339 | 8.63592 | 3010 ft | 125 kts | 329° |
| 2026-05-05 14:14 | 54.68048 | 8.62729 | 3010 ft | 125 kts | 329° |
| 2026-05-05 14:14 | 54.68756 | 8.61859 | 3009 ft | 125 kts | 331° |
| 2026-05-05 14:14 | 54.69465 | 8.60988 | 3009 ft | 125 kts | 329° |
| 2026-05-05 14:15 | 54.70176 | 8.60119 | 3012 ft | 125 kts | 331° |
| 2026-05-05 14:15 | 54.70884 | 8.59249 | 3006 ft | 124 kts | 333° |
| 2026-05-05 14:15 | 54.71587 | 8.58385 | 3006 ft | 124 kts | 332° |
| 2026-05-05 14:15 | 54.72292 | 8.57520 | 3009 ft | 125 kts | 330° |
| 2026-05-05 14:16 | 54.72980 | 8.56676 | 3005 ft | 117 kts | 332° |
| 2026-05-05 14:16 | 54.73624 | 8.55880 | 2999 ft | 111 kts | 330° |
| 2026-05-05 14:16 | 54.74241 | 8.55129 | 2999 ft | 106 kts | 330° |
| 2026-05-05 14:16 | 54.74828 | 8.54401 | 2998 ft | 104 kts | 332° |
| 2026-05-05 14:17 | 54.75408 | 8.53693 | 3000 ft | 98 kts | 334° |
| 2026-05-05 14:17 | 54.75939 | 8.53036 | 2996 ft | 89 kts | 336° |
| 2026-05-05 14:17 | 54.76420 | 8.52401 | 2981 ft | 86 kts | 327° |
| 2026-05-05 14:17 | 54.76879 | 8.51752 | 2965 ft | 85 kts | 328° |
| 2026-05-05 14:18 | 54.77311 | 8.51144 | 3028 ft | 80 kts | 335° |
| 2026-05-05 14:18 | 54.77748 | 8.50575 | 3031 ft | 77 kts | 336° |
| 2026-05-05 14:18 | 54.78191 | 8.50058 | 3010 ft | 78 kts | 333° |
| 2026-05-05 14:18 | 54.78648 | 8.49535 | 2945 ft | 79 kts | 338° |
| 2026-05-05 14:19 | 54.79102 | 8.48997 | 2858 ft | 79 kts | 334° |
| 2026-05-05 14:19 | 54.79540 | 8.48453 | 2753 ft | 79 kts | 331° |
| 2026-05-05 14:19 | 54.80000 | 8.47911 | 2661 ft | 80 kts | 334° |
| 2026-05-05 14:19 | 54.80457 | 8.47376 | 2595 ft | 79 kts | 334° |
| 2026-05-05 14:20 | 54.80904 | 8.46845 | 2491 ft | 76 kts | 336° |
| 2026-05-05 14:20 | 54.81344 | 8.46349 | 2353 ft | 76 kts | 333° |
| 2026-05-05 14:20 | 54.81762 | 8.45866 | 2264 ft | 69 kts | 337° |
| 2026-05-05 14:20 | 54.82159 | 8.45392 | 2127 ft | 68 kts | 335° |
| 2026-05-05 14:21 | 54.82556 | 8.44956 | 2002 ft | 65 kts | 338° |
| 2026-05-05 14:21 | 54.82925 | 8.44518 | 1900 ft | 65 kts | 331° |
| 2026-05-05 14:21 | 54.83292 | 8.44023 | 1792 ft | 65 kts | 329° |
| 2026-05-05 14:21 | 54.83634 | 8.43536 | 1699 ft | 63 kts | 327° |
| 2026-05-05 14:22 | 54.83981 | 8.43068 | 1612 ft | 66 kts | 331° |
| 2026-05-05 14:22 | 54.84371 | 8.42624 | 1519 ft | 67 kts | 332° |
| 2026-05-05 14:22 | 54.84758 | 8.42184 | 1439 ft | 65 kts | 330° |
| 2026-05-05 14:22 | 54.85117 | 8.41731 | 1384 ft | 64 kts | 328° |
| 2026-05-05 14:23 | 54.85479 | 8.41281 | 1270 ft | 64 kts | 329° |
| 2026-05-05 14:23 | 54.85839 | 8.40840 | 1197 ft | 62 kts | 330° |
| 2026-05-05 14:23 | 54.86190 | 8.40438 | 1115 ft | 59 kts | 332° |
| 2026-05-05 14:23 | 54.86514 | 8.40011 | 1054 ft | 57 kts | 329° |
| 2026-05-05 14:24 | 54.86851 | 8.39595 | 923 ft | 61 kts | 328° |
| 2026-05-05 14:24 | 54.87216 | 8.39212 | 837 ft | 61 kts | 329° |
| 2026-05-05 14:24 | 54.87548 | 8.38776 | 780 ft | 59 kts | 324° |
| 2026-05-05 14:24 | 54.87892 | 8.38335 | 690 ft | 63 kts | 326° |
| 2026-05-05 14:25 | 54.88225 | 8.37899 | 606 ft | 59 kts | 326° |
| 2026-05-05 14:25 | 54.88556 | 8.37466 | 500 ft | 58 kts | 325° |
| 2026-05-05 14:25 | 54.88880 | 8.37057 | 414 ft | 57 kts | 325° |
| 2026-05-05 14:25 | 54.89207 | 8.36666 | 346 ft | 58 kts | 325° |
| 2026-05-05 14:26 | 54.89541 | 8.36251 | 279 ft | 63 kts | 329° |
| 2026-05-05 14:26 | 54.89899 | 8.35805 | 205 ft | 57 kts | 329° |
| 2026-05-05 14:26 | 54.90204 | 8.35426 | 119 ft | 54 kts | 330° |
| 2026-05-05 14:26 | 54.90502 | 8.35062 | 51 ft | 52 kts | 328° |
| 2026-05-05 14:27 | 54.90608 | 8.34931 | 40 ft | 50 kts | 328° |
| 2026-05-05 14:31 | 54.90808 | 8.34682 | 40 ft | 41 kts | 329° |
| 2026-05-05 14:31 | 54.91002 | 8.34443 | 39 ft | 28 kts | 324° |